Terminal Aerodrome Forecast
Issued by NWS Rapid City, SD

Home | Current Version | Previous Version | Graphics & Text | Print | Product List | Glossary On
Versions: 1 2 3 4 5 6 7 8 9 10 11 12 13 14 15 16 17 18
000
FTUS43 KUNR 112200 AAB
TAFRAP
TAF AMD
KRAP 112248Z 1123/1218 06009KT P6SM VCTS SCT050CB BKN060
      TEMPO 1123/1203 VRB20G30KT 2SM TSRA BKN025 OVC040CB
     FM120600 36010KT P6SM BKN100=

USA.gov is the U.S. government's official web portal to all federal, state and local government web resources and services.